createdAt,value
2017-09-12T00:00:25.941Z,13.13
2017-09-12T00:01:36.207Z,13.13
2017-09-12T00:02:46.455Z,13.08
2017-09-12T00:03:56.704Z,12.93
2017-09-12T00:05:06.590Z,12.93
2017-09-12T00:06:16.534Z,13.02
2017-09-12T00:07:26.789Z,12.87
2017-09-12T00:08:36.724Z,12.83
2017-09-12T00:09:46.656Z,12.84
2017-09-12T00:10:56.843Z,12.72
2017-09-12T00:12:06.784Z,12.72
2017-09-12T00:13:17.043Z,12.57
2017-09-12T00:14:26.985Z,12.53
2017-09-12T00:15:37.229Z,12.53
2017-09-12T00:16:47.404Z,12.47
2017-09-12T00:17:57.657Z,12.32
2017-09-12T00:19:07.602Z,12.32
2017-09-12T00:20:17.540Z,12.32
2017-09-12T00:21:27.481Z,12.29
2017-09-12T00:22:37.719Z,12.3
2017-09-12T00:23:47.969Z,12.32
2017-09-12T00:24:58.232Z,12.25
2017-09-12T00:26:08.467Z,12.26
2017-09-12T00:27:18.723Z,12.2
2017-09-12T00:28:29.220Z,12.2
2017-09-12T00:29:39.483Z,12.11
2017-09-12T00:30:49.735Z,12.17
2017-09-12T00:31:59.993Z,12.2
2017-09-12T00:33:10.250Z,12.15
2017-09-12T00:34:20.428Z,12.3
2017-09-12T00:35:30.376Z,12.26
2017-09-12T00:36:40.311Z,12.18
2017-09-12T00:37:50.245Z,12.18
2017-09-12T00:39:00.493Z,12.2
2017-09-12T00:40:10.996Z,12.28
2017-09-12T00:41:20.614Z,12.2
2017-09-12T00:42:30.870Z,12.3
2017-09-12T00:43:40.811Z,12.15
2017-09-12T00:44:50.745Z,12.1
2017-09-12T00:46:00.941Z,12.15
2017-09-12T00:47:11.186Z,12.14
2017-09-12T00:48:21.434Z,12.17
2017-09-12T00:49:31.060Z,12.18
2017-09-12T00:50:41.324Z,12.3
2017-09-12T00:51:51.813Z,12.17
2017-09-12T00:53:02.075Z,12.18
2017-09-12T00:54:12.009Z,12.26
2017-09-12T00:55:21.946Z,12.14
2017-09-12T00:56:31.886Z,12.2
2017-09-12T00:57:41.790Z,12.17
2017-09-12T00:58:52.047Z,12.23
2017-09-12T01:00:01.676Z,12.18
2017-09-12T01:01:11.932Z,12.21
2017-09-12T01:02:22.177Z,12.26
2017-09-12T01:03:32.674Z,12.2
2017-09-12T01:04:42.922Z,12.3
2017-09-12T01:05:52.547Z,12.18
2017-09-12T01:07:02.492Z,12.2
2017-09-12T01:08:12.433Z,12.2
2017-09-12T01:09:22.942Z,12.2
2017-09-12T01:10:33.186Z,12.23
2017-09-12T01:11:43.127Z,12.2
2017-09-12T01:12:53.376Z,12.2
2017-09-12T01:14:03.646Z,12.18
2017-09-12T01:15:13.832Z,12.21
2017-09-12T01:16:24.068Z,12.28
2017-09-12T01:17:34.001Z,12.12
2017-09-12T01:18:43.935Z,12.18
2017-09-12T01:19:53.892Z,12.18
2017-09-12T01:21:04.073Z,12.23
2017-09-12T01:22:14.010Z,12.28
2017-09-12T01:23:24.258Z,12.26
2017-09-12T01:24:34.192Z,12.32
2017-09-12T01:25:44.431Z,12.29
2017-09-12T01:26:54.932Z,12.37
2017-09-12T01:28:04.863Z,12.29
2017-09-12T01:29:14.808Z,12.3
2017-09-12T01:30:25.054Z,12.29
2017-09-12T01:31:35.305Z,12.32
2017-09-12T01:32:45.803Z,12.39
2017-09-12T01:33:55.734Z,12.45
2017-09-12T01:35:05.982Z,12.39
2017-09-12T01:36:16.269Z,12.29
2017-09-12T01:37:26.518Z,12.37
2017-09-12T01:38:37.019Z,12.25
2017-09-12T01:39:47.259Z,12.3
2017-09-12T01:40:57.512Z,12.32
2017-09-12T01:42:07.123Z,12.33
2017-09-12T01:43:17.386Z,12.29
2017-09-12T01:44:27.892Z,12.33
2017-09-12T01:45:38.143Z,12.25
2017-09-12T01:46:48.077Z,12.28
2017-09-12T01:47:58.335Z,12.29
2017-09-12T01:49:07.958Z,12.2
2017-09-12T01:50:18.148Z,12.17
2017-09-12T01:51:28.401Z,12.2
2017-09-12T01:52:38.030Z,12.15
2017-09-12T01:53:48.296Z,12.17
2017-09-12T01:54:58.556Z,12.2
2017-09-12T01:56:40.516Z,12.15
2017-09-12T01:58:22.542Z,12.11
2017-09-12T01:59:32.162Z,12.17
2017-09-12T02:00:42.090Z,12.1
2017-09-12T02:01:52.600Z,12.12
2017-09-12T02:03:02.524Z,12.1
2017-09-12T02:04:12.786Z,12.08
2017-09-12T02:05:23.039Z,12.11
2017-09-12T02:06:33.285Z,12.1
2017-09-12T02:07:43.786Z,12.11
2017-09-12T02:08:53.718Z,12.03
2017-09-12T02:10:03.663Z,12.08
2017-09-12T02:11:13.906Z,12.08
2017-09-12T02:12:23.837Z,12.08
2017-09-12T02:13:34.341Z,12.05
2017-09-12T02:14:44.579Z,12.03
2017-09-12T02:15:54.191Z,12.07
2017-09-12T02:17:04.131Z,11.99
2017-09-12T02:18:13.776Z,11.97
2017-09-12T02:19:23.962Z,11.97
2017-09-12T02:20:33.904Z,12.14
2017-09-12T02:21:44.153Z,12
2017-09-12T02:22:53.460Z,12
2017-09-12T02:24:03.080Z,12
2017-09-12T02:25:12.632Z,12
2017-09-12T02:26:22.883Z,12.07
2017-09-12T02:27:33.126Z,11.95
2017-09-12T02:28:43.077Z,12.02
2017-09-12T02:29:53.327Z,12
2017-09-12T02:31:03.512Z,12.08
2017-09-12T02:32:13.506Z,12
2017-09-12T02:33:23.758Z,11.99
2017-09-12T02:34:34.025Z,12.02
2017-09-12T02:35:44.290Z,11.97
2017-09-12T02:36:54.478Z,11.95
2017-09-12T02:38:04.725Z,11.85
2017-09-12T02:39:14.996Z,11.93
2017-09-12T02:40:25.251Z,11.77
2017-09-12T02:41:35.505Z,11.81
2017-09-12T02:42:46.002Z,11.77
2017-09-12T02:43:55.952Z,11.74
2017-09-12T02:45:05.888Z,11.73
2017-09-12T02:46:16.146Z,11.67
2017-09-12T02:47:26.401Z,11.71
2017-09-12T02:48:36.914Z,11.55
2017-09-12T02:49:47.175Z,11.58
2017-09-12T02:50:57.430Z,11.53
2017-09-12T02:52:07.373Z,11.49
2017-09-12T02:53:17.302Z,11.48
2017-09-12T02:54:27.507Z,11.45
2017-09-12T02:55:37.440Z,11.44
2017-09-12T02:56:47.395Z,11.44
2017-09-12T02:57:57.655Z,11.41
2017-09-12T02:59:07.923Z,11.44
2017-09-12T03:00:18.105Z,11.4
2017-09-12T03:01:28.363Z,11.34
2017-09-12T03:02:38.604Z,11.34
2017-09-12T03:03:48.535Z,11.38
2017-09-12T03:04:58.793Z,11.4
2017-09-12T03:06:09.022Z,11.4
2017-09-12T03:07:18.950Z,11.4
2017-09-12T03:08:28.567Z,11.41
2017-09-12T03:09:38.508Z,11.44
2017-09-12T03:10:48.128Z,11.4
2017-09-12T03:11:58.312Z,11.35
2017-09-12T03:13:08.236Z,11.4
2017-09-12T03:14:18.502Z,11.4
2017-09-12T03:15:28.437Z,11.19
2017-09-12T03:16:38.377Z,11.27
2017-09-12T03:17:48.924Z,11.26
2017-09-12T03:18:59.178Z,11.3
2017-09-12T03:20:08.797Z,11.25
2017-09-12T03:21:19.044Z,11.23
2017-09-12T03:22:29.309Z,11.25
2017-09-12T03:23:39.493Z,11.3
2017-09-12T03:24:49.760Z,11.2
2017-09-12T03:26:00.005Z,11.33
2017-09-12T03:27:10.250Z,11.22
2017-09-12T03:28:20.497Z,11.34
2017-09-12T03:29:30.674Z,11.35
2017-09-12T03:30:40.922Z,11.38
2017-09-12T03:31:50.902Z,11.45
2017-09-12T03:33:01.152Z,11.34
2017-09-12T03:34:11.398Z,11.4
2017-09-12T03:35:21.589Z,11.51
2017-09-12T03:36:31.529Z,11.44
2017-09-12T03:37:41.789Z,11.51
2017-09-12T03:38:52.046Z,11.52
2017-09-12T03:40:02.297Z,11.56
2017-09-12T03:41:12.179Z,11.56
2017-09-12T03:42:21.802Z,11.52
2017-09-12T03:43:32.067Z,11.59
2017-09-12T03:44:42.326Z,11.58
2017-09-12T03:45:52.573Z,11.53
2017-09-12T03:47:03.064Z,11.52
2017-09-12T03:48:13.324Z,11.59
2017-09-12T03:49:23.595Z,11.59
2017-09-12T03:50:33.856Z,11.58
2017-09-12T03:51:43.806Z,11.55
2017-09-12T03:52:53.989Z,11.53
2017-09-12T03:54:04.245Z,11.55
2017-09-12T03:55:13.866Z,11.56
2017-09-12T03:56:24.122Z,11.53
2017-09-12T03:57:34.362Z,11.49
2017-09-12T03:58:44.854Z,11.45
2017-09-12T03:59:54.790Z,11.51
2017-09-12T04:01:04.401Z,11.45
2017-09-12T04:02:14.333Z,11.44
2017-09-12T04:03:24.603Z,11.34
2017-09-12T04:04:34.781Z,11.27
2017-09-12T04:05:45.037Z,11.23
2017-09-12T04:06:55.274Z,11.3
2017-09-12T04:08:05.520Z,11.18
2017-09-12T04:09:15.455Z,11.13
2017-09-12T04:10:25.961Z,11.16
2017-09-12T04:11:35.895Z,11.16
2017-09-12T04:12:45.828Z,11.12
2017-09-12T04:13:56.078Z,11.12
2017-09-12T04:15:06.348Z,11.01
2017-09-12T04:16:16.845Z,10.98
2017-09-12T04:17:27.099Z,10.98
2017-09-12T04:18:37.040Z,10.95
2017-09-12T04:19:47.295Z,10.95
2017-09-12T04:20:57.549Z,10.95
2017-09-12T04:22:08.049Z,10.98
2017-09-12T04:23:17.980Z,10.97
2017-09-12T04:24:28.228Z,10.94
2017-09-12T04:25:38.163Z,10.86
2017-09-12T04:26:48.106Z,10.83
2017-09-12T04:27:58.608Z,10.89
2017-09-12T04:29:08.868Z,10.84
2017-09-12T04:30:19.119Z,10.86
2017-09-12T04:31:28.735Z,10.84
2017-09-12T04:32:39.006Z,10.86
2017-09-12T04:33:49.519Z,10.8
2017-09-12T04:34:59.453Z,10.83
2017-09-12T04:36:09.698Z,10.75
2017-09-12T04:37:19.627Z,10.71
2017-09-12T04:38:29.574Z,10.75
2017-09-12T04:39:39.772Z,10.82
2017-09-12T04:40:49.712Z,10.75
2017-09-12T04:41:59.963Z,10.75
2017-09-12T04:43:10.212Z,10.77
2017-09-12T04:44:20.463Z,10.75
2017-09-12T04:45:30.700Z,10.77
2017-09-12T04:46:40.641Z,10.77
2017-09-12T04:47:50.890Z,10.65
2017-09-12T04:49:00.811Z,10.72
2017-09-12T04:50:10.741Z,10.79
2017-09-12T04:51:20.924Z,10.69
2017-09-12T04:52:30.544Z,10.75
2017-09-12T04:53:40.794Z,10.71
2017-09-12T04:54:50.743Z,10.69
2017-09-12T04:56:00.989Z,10.69
2017-09-12T04:57:10.859Z,10.69
2017-09-12T04:58:21.105Z,10.79
2017-09-12T04:59:31.069Z,10.79
2017-09-12T05:00:41.321Z,10.76
2017-09-12T05:01:51.579Z,10.79
2017-09-12T05:03:02.119Z,10.75
2017-09-12T05:04:12.392Z,10.77
2017-09-12T05:05:22.640Z,10.8
2017-09-12T05:06:31.948Z,10.77
2017-09-12T05:07:40.945Z,10.72
2017-09-12T05:08:51.456Z,10.86
2017-09-12T05:10:01.711Z,10.75
2017-09-12T05:11:11.969Z,10.84
2017-09-12T05:12:22.229Z,10.87
2017-09-12T05:13:32.484Z,10.86
2017-09-12T05:14:42.980Z,10.82
2017-09-12T05:15:53.246Z,10.92
2017-09-12T05:17:03.493Z,10.92
2017-09-12T05:18:13.756Z,10.95
2017-09-12T05:19:23.721Z,10.94
2017-09-12T05:20:34.229Z,11
2017-09-12T05:21:44.478Z,10.94
2017-09-12T05:22:54.438Z,11.02
2017-09-12T05:24:04.682Z,11.13
2017-09-12T05:25:14.929Z,11.1
2017-09-12T05:26:25.416Z,11.2
2017-09-12T05:27:35.369Z,11.19
2017-09-12T05:28:45.631Z,11.33
2017-09-12T05:29:55.897Z,11.34
2017-09-12T05:31:06.144Z,11.43
2017-09-12T05:32:16.037Z,11.48
2017-09-12T05:33:26.282Z,11.56
2017-09-12T05:34:36.537Z,11.59
2017-09-12T05:35:46.787Z,11.59
2017-09-12T05:36:57.049Z,11.65
2017-09-12T05:38:07.569Z,11.81
2017-09-12T05:39:17.829Z,11.8
2017-09-12T05:40:28.091Z,11.81
2017-09-12T05:41:38.342Z,11.93
2017-09-12T05:42:48.296Z,11.96
2017-09-12T05:43:58.491Z,11.97
2017-09-12T05:45:08.754Z,12.07
2017-09-12T05:46:19.011Z,12.21
2017-09-12T05:47:28.939Z,12.18
2017-09-12T05:48:38.562Z,12.23
2017-09-12T05:49:48.748Z,12.32
2017-09-12T05:50:58.369Z,12.3
2017-09-12T05:52:08.226Z,12.39
2017-09-12T05:53:18.486Z,12.32
2017-09-12T05:54:28.734Z,12.29
2017-09-12T05:55:38.920Z,12.32
2017-09-12T05:56:48.543Z,12.45
2017-09-12T05:57:58.833Z,12.4
2017-09-12T05:59:08.784Z,12.48
2017-09-12T06:00:18.719Z,12.5
2017-09-12T06:01:29.218Z,12.45
2017-09-12T06:02:39.479Z,12.53
2017-09-12T06:03:49.397Z,12.53
2017-09-12T06:04:59.683Z,12.51
2017-09-12T06:06:09.970Z,12.53
2017-09-12T06:07:20.541Z,12.5
2017-09-12T06:08:30.823Z,12.48
2017-09-12T06:09:41.104Z,12.53
2017-09-12T06:10:51.384Z,12.53
2017-09-12T06:12:01.628Z,12.53
2017-09-12T06:13:12.143Z,12.51
2017-09-12T06:14:22.117Z,12.48
2017-09-12T06:15:32.379Z,12.5
2017-09-12T06:16:42.318Z,12.63
2017-09-12T06:17:52.569Z,12.57
2017-09-12T06:19:03.076Z,12.68
2017-09-12T06:20:12.709Z,12.66
2017-09-12T06:21:22.344Z,12.72
2017-09-12T06:22:32.596Z,12.76
2017-09-12T06:23:42.863Z,12.76
2017-09-12T06:24:52.740Z,12.73
2017-09-12T06:26:02.990Z,12.75
2017-09-12T06:27:13.247Z,12.9
2017-09-12T06:28:23.693Z,12.91
2017-09-12T06:29:33.949Z,12.87
2017-09-12T06:30:44.143Z,12.94
2017-09-12T06:31:53.754Z,12.98
2017-09-12T06:33:03.997Z,12.93
2017-09-12T06:34:13.968Z,12.93
2017-09-12T06:35:23.911Z,12.91
2017-09-12T06:36:34.106Z,13.01
2017-09-12T06:37:44.360Z,13.08
2017-09-12T06:38:54.303Z,13.11
2017-09-12T06:40:04.554Z,13.12
2017-09-12T06:41:14.827Z,13.05
2017-09-12T06:42:25.332Z,13.11
2017-09-12T06:43:35.601Z,13.28
2017-09-12T06:44:45.882Z,13.24
2017-09-12T06:45:56.195Z,13.2
2017-09-12T06:47:06.496Z,13.3
2017-09-12T06:48:17.050Z,13.28
2017-09-12T06:49:27.035Z,13.21
2017-09-12T06:50:36.977Z,13.36
2017-09-12T06:51:47.239Z,13.36
2017-09-12T06:52:57.782Z,13.4
2017-09-12T06:54:08.336Z,13.49
2017-09-12T06:55:18.630Z,13.5
2017-09-12T06:56:28.902Z,13.61
2017-09-12T06:57:38.862Z,13.65
2017-09-12T06:58:49.135Z,13.65
2017-09-12T06:59:59.707Z,13.68
2017-09-12T07:01:10.048Z,13.73
2017-09-12T07:02:20.310Z,13.79
2017-09-12T07:03:30.257Z,13.79
2017-09-12T07:04:40.562Z,13.78
2017-09-12T07:05:51.082Z,13.73
2017-09-12T07:07:01.371Z,13.82
2017-09-12T07:08:11.646Z,13.85
2017-09-12T07:09:21.877Z,13.86
2017-09-12T07:10:32.160Z,13.87
2017-09-12T07:11:42.698Z,13.93
2017-09-12T07:12:52.979Z,13.95
2017-09-12T07:14:03.279Z,13.98
2017-09-12T07:15:13.566Z,13.94
2017-09-12T07:16:23.855Z,14.07
2017-09-12T07:17:34.093Z,14.13
2017-09-12T07:18:44.055Z,14.22
2017-09-12T07:19:54.620Z,14.3
2017-09-12T07:21:04.600Z,14.25
2017-09-12T07:22:14.554Z,14.26
2017-09-12T07:23:25.075Z,14.31
2017-09-12T07:24:35.369Z,14.44
2017-09-12T07:25:45.674Z,14.58
2017-09-12T07:26:55.620Z,14.52
2017-09-12T07:28:04.934Z,14.59
2017-09-12T07:29:15.445Z,14.61
2017-09-12T07:30:25.420Z,14.56
2017-09-12T07:31:35.681Z,14.74
2017-09-12T07:32:45.947Z,14.81
2017-09-12T07:33:56.200Z,14.9
2017-09-12T07:35:06.706Z,14.9
2017-09-12T07:36:16.652Z,14.89
2017-09-12T07:37:26.934Z,14.87
2017-09-12T07:38:36.871Z,14.92
2017-09-12T07:39:47.124Z,14.85
2017-09-12T07:40:57.649Z,14.79
2017-09-12T07:42:07.924Z,14.77
2017-09-12T07:43:18.185Z,14.78
2017-09-12T07:44:28.153Z,14.79
2017-09-12T07:45:38.423Z,14.74
2017-09-12T07:46:48.937Z,14.82
2017-09-12T07:47:59.206Z,14.71
2017-09-12T07:49:09.467Z,14.79
2017-09-12T07:50:19.722Z,14.78
2017-09-12T07:51:29.665Z,14.81
2017-09-12T07:52:40.172Z,14.74
2017-09-12T07:53:50.461Z,14.74
2017-09-12T07:55:00.424Z,14.66
2017-09-12T07:56:10.696Z,14.7
2017-09-12T07:57:20.977Z,14.63
2017-09-12T07:58:31.179Z,14.66
2017-09-12T07:59:41.452Z,14.66
2017-09-12T08:00:51.389Z,14.77
2017-09-12T08:02:01.659Z,14.77
2017-09-12T08:03:11.620Z,14.77
2017-09-12T08:04:21.851Z,14.78
2017-09-12T08:05:32.126Z,14.74
2017-09-12T08:06:42.391Z,14.79
2017-09-12T08:07:52.672Z,14.74
2017-09-12T08:09:02.930Z,14.78
2017-09-12T08:10:13.153Z,14.85
2017-09-12T08:11:23.116Z,14.79
2017-09-12T08:12:33.372Z,14.94
2017-09-12T08:13:43.342Z,14.87
2017-09-12T08:14:53.606Z,14.92
2017-09-12T08:16:04.118Z,14.97
2017-09-12T08:17:14.378Z,15
2017-09-12T08:18:24.378Z,15
2017-09-12T08:19:34.705Z,14.97
2017-09-12T08:20:44.687Z,15
2017-09-12T08:21:54.884Z,15.1
2017-09-12T08:23:04.832Z,15.02
2017-09-12T08:24:15.101Z,15.15
2017-09-12T08:25:25.368Z,15.12
2017-09-12T08:26:35.304Z,15.14
2017-09-12T08:27:45.489Z,15.1
2017-09-12T08:28:55.797Z,15.08
2017-09-12T08:30:06.065Z,15.19
2017-09-12T08:31:16.039Z,15.1
2017-09-12T08:32:26.306Z,15.12
2017-09-12T08:33:36.879Z,15.11
2017-09-12T08:34:46.838Z,15.32
2017-09-12T08:35:57.099Z,15.36
2017-09-12T08:37:07.361Z,15.44
2017-09-12T08:38:17.617Z,15.55
2017-09-12T08:39:27.501Z,15.67
2017-09-12T08:40:37.772Z,15.69
2017-09-12T08:41:48.032Z,15.83
2017-09-12T08:42:57.993Z,15.8
2017-09-12T08:44:08.250Z,15.84
2017-09-12T08:45:18.768Z,15.98
2017-09-12T08:46:29.063Z,16.09
2017-09-12T08:47:39.329Z,16.09
2017-09-12T08:48:49.587Z,16.25
2017-09-12T08:49:59.866Z,16.25
2017-09-12T08:51:10.375Z,16.39
2017-09-12T08:52:19.981Z,16.51
2017-09-12T08:53:30.241Z,16.73
2017-09-12T08:54:40.194Z,16.76
2017-09-12T08:55:50.481Z,16.76
2017-09-12T08:57:01.038Z,16.72
2017-09-12T08:58:11.002Z,16.72
2017-09-12T08:59:21.271Z,16.69
2017-09-12T09:00:31.216Z,16.72
2017-09-12T09:01:40.842Z,16.76
2017-09-12T09:02:51.354Z,16.69
2017-09-12T09:04:00.965Z,16.54
2017-09-12T09:05:10.573Z,16.49
2017-09-12T09:06:20.823Z,16.49
2017-09-12T09:07:30.773Z,16.51
2017-09-12T09:08:41.016Z,16.44
2017-09-12T09:09:51.293Z,16.51
2017-09-12T09:11:01.554Z,16.61
2017-09-12T09:12:11.516Z,16.69
2017-09-12T09:13:21.779Z,16.73
2017-09-12T09:14:31.657Z,16.51
2017-09-12T09:15:41.938Z,16.82
2017-09-12T09:16:52.202Z,16.86
2017-09-12T09:18:02.457Z,16.84
2017-09-12T09:19:12.715Z,16.79
2017-09-12T09:20:23.243Z,16.91
2017-09-12T09:21:33.506Z,17.02
2017-09-12T09:22:43.455Z,17.19
2017-09-12T09:23:53.397Z,16.99
2017-09-12T09:25:03.669Z,17.07
2017-09-12T09:26:14.174Z,16.82
2017-09-12T09:27:24.154Z,16.87
2017-09-12T09:28:34.357Z,16.87
2017-09-12T09:29:44.786Z,16.8
2017-09-12T09:30:54.735Z,16.95
2017-09-12T09:32:05.256Z,16.97
2017-09-12T09:33:15.519Z,16.92
2017-09-12T09:34:25.547Z,16.95
2017-09-12T09:35:35.829Z,16.84
2017-09-12T09:36:46.121Z,16.95
2017-09-12T09:37:56.369Z,17.04
2017-09-12T09:39:06.333Z,16.99
2017-09-12T09:40:16.597Z,17.07
2017-09-12T09:41:26.864Z,16.98
2017-09-12T09:42:37.135Z,16.99
2017-09-12T09:43:47.665Z,16.99
2017-09-12T09:44:58.188Z,17.02
2017-09-12T09:46:08.153Z,17.2
2017-09-12T09:47:18.472Z,17.42
2017-09-12T09:48:28.747Z,17.59
2017-09-12T09:49:39.287Z,17.6
2017-09-12T09:50:49.588Z,17.57
2017-09-12T09:51:59.876Z,17.71
2017-09-12T09:53:10.161Z,17.6
2017-09-12T09:54:20.425Z,17.65
2017-09-12T09:55:30.651Z,17.65
2017-09-12T09:56:40.924Z,17.66
2017-09-12T09:57:51.184Z,17.72
2017-09-12T09:59:00.512Z,17.82
2017-09-12T10:00:10.783Z,17.86
2017-09-12T10:01:21.291Z,18
2017-09-12T10:02:31.256Z,18.09
2017-09-12T10:03:41.207Z,18.28
2017-09-12T10:04:51.478Z,18.41
2017-09-12T10:06:01.765Z,18.57
2017-09-12T10:07:12.278Z,18.74
2017-09-12T10:08:22.538Z,18.64
2017-09-12T10:09:32.499Z,18.86
2017-09-12T10:10:42.773Z,18.96
2017-09-12T10:11:53.090Z,19.22
2017-09-12T10:13:03.614Z,19.08
2017-09-12T10:14:13.886Z,19.11
2017-09-12T10:15:23.837Z,18.91
2017-09-12T10:16:33.797Z,19.04
2017-09-12T10:17:44.065Z,19.04
2017-09-12T10:18:54.515Z,19.07
2017-09-12T10:20:04.569Z,19.16
2017-09-12T10:21:14.212Z,18.73
2017-09-12T10:22:24.493Z,18.61
2017-09-12T10:23:34.760Z,18.48
2017-09-12T10:24:45.264Z,18.33
2017-09-12T10:25:55.534Z,18.53
2017-09-12T10:27:05.496Z,18.63
2017-09-12T10:28:15.489Z,18.33
2017-09-12T10:29:25.495Z,18.39
2017-09-12T10:30:36.016Z,18.41
2017-09-12T10:31:46.006Z,18.21
2017-09-12T10:32:56.338Z,18.11
2017-09-12T10:34:06.611Z,18.12
2017-09-12T10:35:16.612Z,18.18
2017-09-12T10:36:27.185Z,18.37
2017-09-12T10:37:37.720Z,18.48
2017-09-12T10:38:47.670Z,18.41
2017-09-12T10:39:57.949Z,18.33
2017-09-12T10:41:07.582Z,18.37
2017-09-12T10:42:18.109Z,18.23
2017-09-12T10:43:28.409Z,18.23
2017-09-12T10:44:37.742Z,18.05
2017-09-12T10:45:47.685Z,18
2017-09-12T10:46:57.968Z,17.87
2017-09-12T10:48:08.546Z,17.91
2017-09-12T10:49:18.883Z,17.98
2017-09-12T10:50:29.169Z,18.18
2017-09-12T10:51:39.447Z,18.09
2017-09-12T10:52:49.728Z,18.16
2017-09-12T10:54:00.304Z,18.27
2017-09-12T10:55:10.292Z,18.19
2017-09-12T10:56:20.576Z,18.13
2017-09-12T10:57:30.556Z,18.36
2017-09-12T10:58:40.802Z,18.39
2017-09-12T10:59:51.318Z,18.51
2017-09-12T11:01:01.614Z,18.43
2017-09-12T11:02:11.876Z,18.42
2017-09-12T11:03:22.152Z,18.48
2017-09-12T11:04:32.437Z,18.48
2017-09-12T11:05:42.988Z,18.42
2017-09-12T11:06:53.281Z,18.46
2017-09-12T11:08:03.561Z,18.57
2017-09-12T11:09:13.829Z,18.45
2017-09-12T11:10:24.111Z,18.42
2017-09-12T11:11:34.632Z,18.68
2017-09-12T11:12:45.023Z,18.92
2017-09-12T11:13:54.993Z,19.08
2017-09-12T11:15:05.329Z,19.34
2017-09-12T11:16:15.271Z,19.38
2017-09-12T11:17:25.724Z,19.34
2017-09-12T11:18:35.759Z,19.32
2017-09-12T11:19:45.739Z,19.05
2017-09-12T11:20:55.422Z,19.01
2017-09-12T11:22:05.709Z,19.17
2017-09-12T11:23:16.217Z,19.01
2017-09-12T11:24:26.490Z,19.17
2017-09-12T11:25:36.779Z,19.16
2017-09-12T11:26:46.724Z,19.2
2017-09-12T11:27:56.678Z,19.24
2017-09-12T11:29:06.859Z,19.41
2017-09-12T11:30:16.497Z,19.47
2017-09-12T11:31:26.790Z,19.42
2017-09-12T11:32:36.767Z,19.48
2017-09-12T11:33:47.038Z,19.62
2017-09-12T11:34:57.553Z,19.55
2017-09-12T11:36:07.524Z,19.67
2017-09-12T11:37:17.466Z,19.82
2017-09-12T11:38:27.756Z,19.96
2017-09-12T11:39:38.016Z,20.21
2017-09-12T11:40:48.646Z,20.27
2017-09-12T11:41:58.906Z,20.48
2017-09-12T11:43:09.180Z,20.48
2017-09-12T11:44:19.435Z,20.27
2017-09-12T11:45:29.711Z,19.9
2017-09-12T11:46:39.911Z,19.63
2017-09-12T11:47:49.854Z,19.32
2017-09-12T11:48:59.833Z,19.26
2017-09-12T11:50:10.160Z,19.17
2017-09-12T11:51:20.425Z,18.92
2017-09-12T11:52:30.647Z,18.89
2017-09-12T11:53:40.950Z,18.76
2017-09-12T11:54:50.901Z,18.73
2017-09-12T11:56:01.159Z,18.89
2017-09-12T11:57:11.454Z,18.78
2017-09-12T11:58:21.675Z,18.71
2017-09-12T11:59:31.624Z,18.76
2017-09-12T12:00:41.579Z,18.71
2017-09-12T12:01:51.516Z,18.73
2017-09-12T12:03:01.784Z,18.71
2017-09-12T12:04:12.304Z,18.63
2017-09-12T12:05:22.597Z,18.6
2017-09-12T12:06:32.561Z,18.67
2017-09-12T12:07:42.848Z,18.61
2017-09-12T12:08:53.344Z,18.81
2017-09-12T12:10:03.866Z,18.81
2017-09-12T12:11:13.813Z,18.85
2017-09-12T12:12:24.096Z,18.83
2017-09-12T12:13:34.380Z,18.97
2017-09-12T12:14:44.335Z,19.04
2017-09-12T12:15:54.567Z,19.05
2017-09-12T12:17:04.857Z,19.11
2017-09-12T12:18:15.122Z,19.15
2017-09-12T12:19:25.420Z,19.19
2017-09-12T12:20:35.690Z,19.29
2017-09-12T12:21:45.730Z,19.37
2017-09-12T12:22:55.716Z,19.38
2017-09-12T12:24:05.990Z,19.53
2017-09-12T12:25:16.266Z,19.56
2017-09-12T12:26:26.552Z,19.41
2017-09-12T12:27:37.218Z,19.39
2017-09-12T12:28:47.561Z,19.29
2017-09-12T12:29:57.851Z,19.32
2017-09-12T12:31:08.127Z,19.48
2017-09-12T12:32:18.437Z,19.77
2017-09-12T12:33:28.428Z,19.9
2017-09-12T12:34:38.953Z,19.96
2017-09-12T12:35:49.238Z,19.99
2017-09-12T12:36:59.531Z,19.9
2017-09-12T12:38:09.862Z,19.78
2017-09-12T12:39:20.463Z,19.84
2017-09-12T12:40:30.730Z,20
2017-09-12T12:41:40.992Z,19.89
2017-09-12T12:42:51.250Z,19.79
2017-09-12T12:44:01.537Z,19.72
2017-09-12T12:45:12.169Z,19.67
2017-09-12T12:46:22.457Z,19.7
2017-09-12T12:47:32.735Z,19.72
2017-09-12T12:48:42.688Z,19.78
2017-09-12T12:49:52.940Z,19.44
2017-09-12T12:51:03.537Z,19.32
2017-09-12T12:52:13.810Z,19.16
2017-09-12T12:53:24.062Z,19.01
2017-09-12T12:54:34.338Z,18.88
2017-09-12T12:55:44.604Z,18.73
2017-09-12T12:56:55.228Z,18.73
2017-09-12T12:58:05.164Z,18.55
2017-09-12T12:59:15.333Z,18.61
2017-09-12T13:00:25.280Z,18.6
2017-09-12T13:01:35.220Z,18.6
2017-09-12T13:02:45.477Z,18.7
2017-09-12T13:03:55.747Z,18.76
2017-09-12T13:05:05.999Z,18.76
2017-09-12T13:06:16.273Z,18.61
2017-09-12T13:07:26.214Z,18.53
2017-09-12T13:08:36.887Z,18.53
2017-09-12T13:09:46.821Z,18.43
2017-09-12T13:10:57.079Z,18.42
2017-09-12T13:12:07.032Z,18.34
2017-09-12T13:13:16.642Z,18.37
2017-09-12T13:14:26.974Z,18.36
2017-09-12T13:15:36.920Z,18.48
2017-09-12T13:16:47.172Z,18.42
2017-09-12T13:17:57.111Z,18.45
2017-09-12T13:19:06.745Z,18.27
2017-09-12T13:20:17.343Z,18.37
2017-09-12T13:21:26.982Z,17.98
2017-09-12T13:22:37.323Z,17.71
2017-09-12T13:23:46.965Z,17.49
2017-09-12T13:24:57.209Z,17.24
2017-09-12T13:26:07.196Z,17.14
2017-09-12T13:27:17.162Z,16.83
2017-09-12T13:28:27.440Z,16.74
2017-09-12T13:29:37.746Z,16.41
2017-09-12T13:30:47.681Z,16.41
2017-09-12T13:31:58.299Z,16.28
2017-09-12T13:33:08.218Z,16.24
2017-09-12T13:34:18.502Z,16.26
2017-09-12T13:35:28.770Z,16.24
2017-09-12T13:36:38.407Z,16.06
2017-09-12T13:37:48.383Z,16.06
2017-09-12T13:38:58.028Z,15.96
2017-09-12T13:40:07.658Z,15.92
2017-09-12T13:41:17.972Z,15.78
2017-09-12T13:42:28.229Z,15.6
2017-09-12T13:43:38.552Z,15.37
2017-09-12T13:44:48.518Z,15.22
2017-09-12T13:45:58.473Z,14.97
2017-09-12T13:47:08.745Z,14.93
2017-09-12T13:48:19.026Z,14.92
2017-09-12T13:49:29.646Z,14.96
2017-09-12T13:50:39.598Z,15.02
2017-09-12T13:51:49.565Z,15.07
2017-09-12T13:52:59.509Z,15.17
2017-09-12T13:54:09.453Z,15.29
2017-09-12T13:55:20.069Z,15.43
2017-09-12T13:56:29.995Z,15.67
2017-09-12T13:57:40.278Z,15.99
2017-09-12T13:58:50.565Z,16.36
2017-09-12T14:00:00.522Z,16.54
2017-09-12T14:01:11.075Z,16.97
2017-09-12T14:02:21.343Z,17.2
2017-09-12T14:03:31.609Z,17.53
2017-09-12T14:04:41.870Z,17.73
2017-09-12T14:05:51.819Z,17.91
2017-09-12T14:07:01.748Z,18.26
2017-09-12T14:08:12.017Z,18.53
2017-09-12T14:09:21.960Z,18.76
2017-09-12T14:10:31.589Z,18.73
2017-09-12T14:11:41.231Z,18.61
2017-09-12T14:12:51.839Z,18.7
2017-09-12T14:14:01.466Z,18.7
2017-09-12T14:15:11.405Z,18.82
2017-09-12T14:16:21.697Z,18.97
2017-09-12T14:17:31.957Z,18.89
2017-09-12T14:18:42.260Z,19.09
2017-09-12T14:19:52.517Z,19.2
2017-09-12T14:21:02.777Z,18.96
2017-09-12T14:22:13.040Z,19.09
2017-09-12T14:23:22.648Z,19.15
2017-09-12T14:24:32.916Z,19.19
2017-09-12T14:25:43.165Z,19.22
2017-09-12T14:26:53.414Z,19.45
2017-09-12T14:28:03.693Z,19.59
2017-09-12T14:29:13.951Z,19.72
2017-09-12T14:30:23.876Z,19.78
2017-09-12T14:31:33.814Z,19.71
2017-09-12T14:32:44.145Z,19.41
2017-09-12T14:33:54.401Z,19.27
2017-09-12T14:35:04.651Z,19.3
2017-09-12T14:36:14.889Z,19.41
2017-09-12T14:37:24.521Z,19.55
2017-09-12T14:38:34.779Z,19.64
2017-09-12T14:39:45.042Z,19.48
2017-09-12T14:40:54.997Z,19.53
2017-09-12T14:42:05.276Z,19.56
2017-09-12T14:43:15.528Z,19.67
2017-09-12T14:44:25.777Z,19.75
2017-09-12T14:45:36.051Z,19.82
2017-09-12T14:46:46.003Z,19.71
2017-09-12T14:47:56.616Z,19.59
2017-09-12T14:49:06.568Z,19.59
2017-09-12T14:50:16.822Z,19.29
2017-09-12T14:51:27.072Z,19.05
2017-09-12T14:52:37.025Z,18.98
2017-09-12T14:53:47.579Z,18.88
2017-09-12T14:54:57.840Z,18.68
2017-09-12T14:56:08.103Z,18.79
2017-09-12T14:57:18.044Z,18.73
2017-09-12T14:58:27.988Z,18.57
2017-09-12T14:59:38.285Z,18.49
2017-09-12T15:00:48.550Z,18.43
2017-09-12T15:01:58.819Z,18.39
2017-09-12T15:03:09.099Z,18.33
2017-09-12T15:04:19.354Z,18.24
2017-09-12T15:05:29.601Z,18.12
2017-09-12T15:06:39.939Z,18.11
2017-09-12T15:07:50.268Z,18
2017-09-12T15:09:00.531Z,18.02